sensor_id;sensor_type;location;lat;lon;timestamp;temperature;humidity
22145;DHT22;11238;48.730;11.566;2023-11-21T00:01:58;7.10;99.90
22145;DHT22;11238;48.730;11.566;2023-11-21T00:04:24;7.10;99.90
22145;DHT22;11238;48.730;11.566;2023-11-21T00:06:51;7.10;99.90
22145;DHT22;11238;48.730;11.566;2023-11-21T00:09:17;7.20;99.90
22145;DHT22;11238;48.730;11.566;2023-11-21T00:11:44;7.20;99.90
22145;DHT22;11238;48.730;11.566;2023-11-21T00:14:13;7.20;99.90
22145;DHT22;11238;48.730;11.566;2023-11-21T00:16:41;7.20;99.90
22145;DHT22;11238;48.730;11.566;2023-11-21T00:19:07;7.20;99.90
22145;DHT22;11238;48.730;11.566;2023-11-21T00:21:33;7.20;99.90
22145;DHT22;11238;48.730;11.566;2023-11-21T00:23:59;7.10;99.90
22145;DHT22;11238;48.730;11.566;2023-11-21T00:26:25;7.20;99.90
22145;DHT22;11238;48.730;11.566;2023-11-21T00:29:00;7.20;99.90
22145;DHT22;11238;48.730;11.566;2023-11-21T00:31:27;7.20;99.90
22145;DHT22;11238;48.730;11.566;2023-11-21T00:33:53;7.20;99.90
22145;DHT22;11238;48.730;11.566;2023-11-21T00:36:20;7.30;99.90
22145;DHT22;11238;48.730;11.566;2023-11-21T00:38:46;7.20;99.90
22145;DHT22;11238;48.730;11.566;2023-11-21T00:41:14;7.20;99.90
22145;DHT22;11238;48.730;11.566;2023-11-21T00:43:40;7.20;99.90
22145;DHT22;11238;48.730;11.566;2023-11-21T00:46:06;7.20;99.90
22145;DHT22;11238;48.730;11.566;2023-11-21T00:48:37;7.20;99.90
22145;DHT22;11238;48.730;11.566;2023-11-21T00:51:02;7.30;99.90
22145;DHT22;11238;48.730;11.566;2023-11-21T00:53:28;7.30;99.90
22145;DHT22;11238;48.730;11.566;2023-11-21T00:55:54;7.30;99.90
22145;DHT22;11238;48.730;11.566;2023-11-21T00:58:24;7.30;99.90
22145;DHT22;11238;48.730;11.566;2023-11-21T01:00:50;7.30;99.90
22145;DHT22;11238;48.730;11.566;2023-11-21T01:03:16;7.40;99.90
22145;DHT22;11238;48.730;11.566;2023-11-21T01:05:42;7.40;99.90
22145;DHT22;11238;48.730;11.566;2023-11-21T01:08:08;7.40;99.90
22145;DHT22;11238;48.730;11.566;2023-11-21T01:10:34;7.30;99.90
22145;DHT22;11238;48.730;11.566;2023-11-21T01:13:00;7.30;99.90
22145;DHT22;11238;48.730;11.566;2023-11-21T01:15:25;7.40;99.90
22145;DHT22;11238;48.730;11.566;2023-11-21T01:17:52;7.30;99.90
22145;DHT22;11238;48.730;11.566;2023-11-21T01:20:19;7.40;99.90
22145;DHT22;11238;48.730;11.566;2023-11-21T01:22:46;7.40;99.90
22145;DHT22;11238;48.730;11.566;2023-11-21T01:25:15;7.40;99.90
22145;DHT22;11238;48.730;11.566;2023-11-21T01:27:42;7.40;99.90
22145;DHT22;11238;48.730;11.566;2023-11-21T01:30:09;7.40;99.90
22145;DHT22;11238;48.730;11.566;2023-11-21T01:32:38;7.40;99.90
22145;DHT22;11238;48.730;11.566;2023-11-21T01:35:05;7.40;99.90
22145;DHT22;11238;48.730;11.566;2023-11-21T01:37:32;7.50;99.90
22145;DHT22;11238;48.730;11.566;2023-11-21T01:39:59;7.50;99.90
22145;DHT22;11238;48.730;11.566;2023-11-21T01:42:26;7.40;99.90
22145;DHT22;11238;48.730;11.566;2023-11-21T01:44:52;7.40;99.90
22145;DHT22;11238;48.730;11.566;2023-11-21T01:47:20;7.40;99.90
22145;DHT22;11238;48.730;11.566;2023-11-21T01:49:47;7.40;99.90
22145;DHT22;11238;48.730;11.566;2023-11-21T01:52:13;7.40;99.90
22145;DHT22;11238;48.730;11.566;2023-11-21T01:54:41;7.40;99.90
22145;DHT22;11238;48.730;11.566;2023-11-21T01:57:08;7.40;99.90
22145;DHT22;11238;48.730;11.566;2023-11-21T01:59:35;7.40;99.90
22145;DHT22;11238;48.730;11.566;2023-11-21T02:02:04;7.40;99.90
22145;DHT22;11238;48.730;11.566;2023-11-21T02:04:34;7.40;99.90
22145;DHT22;11238;48.730;11.566;2023-11-21T02:07:03;7.40;99.90
22145;DHT22;11238;48.730;11.566;2023-11-21T02:09:33;7.40;99.90
22145;DHT22;11238;48.730;11.566;2023-11-21T02:12:00;7.40;99.90
22145;DHT22;11238;48.730;11.566;2023-11-21T02:14:27;7.30;99.90
22145;DHT22;11238;48.730;11.566;2023-11-21T02:16:54;7.30;99.90
22145;DHT22;11238;48.730;11.566;2023-11-21T02:19:22;7.30;99.90
22145;DHT22;11238;48.730;11.566;2023-11-21T02:21:51;7.30;99.90
22145;DHT22;11238;48.730;11.566;2023-11-21T02:24:24;7.30;99.90
22145;DHT22;11238;48.730;11.566;2023-11-21T02:26:50;7.30;99.90
22145;DHT22;11238;48.730;11.566;2023-11-21T02:29:19;7.30;99.90
22145;DHT22;11238;48.730;11.566;2023-11-21T02:31:52;7.20;99.90
22145;DHT22;11238;48.730;11.566;2023-11-21T02:34:21;7.20;99.90
22145;DHT22;11238;48.730;11.566;2023-11-21T02:36:47;7.30;99.90
22145;DHT22;11238;48.730;11.566;2023-11-21T02:39:17;7.30;99.90
22145;DHT22;11238;48.730;11.566;2023-11-21T02:41:44;7.30;99.90
22145;DHT22;11238;48.730;11.566;2023-11-21T02:44:10;7.30;99.90
22145;DHT22;11238;48.730;11.566;2023-11-21T02:46:36;7.30;99.90
22145;DHT22;11238;48.730;11.566;2023-11-21T02:49:03;7.30;99.90
22145;DHT22;11238;48.730;11.566;2023-11-21T02:51:30;7.30;99.90
22145;DHT22;11238;48.730;11.566;2023-11-21T02:53:56;7.30;99.90
22145;DHT22;11238;48.730;11.566;2023-11-21T02:56:27;7.30;99.90
22145;DHT22;11238;48.730;11.566;2023-11-21T02:58:56;7.30;99.90
22145;DHT22;11238;48.730;11.566;2023-11-21T03:01:22;7.30;99.90
22145;DHT22;11238;48.730;11.566;2023-11-21T03:03:49;7.30;99.90
22145;DHT22;11238;48.730;11.566;2023-11-21T03:06:19;7.30;99.90
22145;DHT22;11238;48.730;11.566;2023-11-21T03:08:46;7.20;99.90
22145;DHT22;11238;48.730;11.566;2023-11-21T03:11:13;7.20;99.90
22145;DHT22;11238;48.730;11.566;2023-11-21T03:13:42;7.20;99.90
22145;DHT22;11238;48.730;11.566;2023-11-21T03:16:09;7.20;99.90
22145;DHT22;11238;48.730;11.566;2023-11-21T03:18:36;7.20;99.90
22145;DHT22;11238;48.730;11.566;2023-11-21T03:21:03;7.20;99.90
22145;DHT22;11238;48.730;11.566;2023-11-21T03:23:31;7.20;99.90
22145;DHT22;11238;48.730;11.566;2023-11-21T03:25:57;7.20;99.90
22145;DHT22;11238;48.730;11.566;2023-11-21T03:28:27;7.20;99.90
22145;DHT22;11238;48.730;11.566;2023-11-21T03:30:54;7.20;99.90
22145;DHT22;11238;48.730;11.566;2023-11-21T03:33:20;7.20;99.90
22145;DHT22;11238;48.730;11.566;2023-11-21T03:35:46;7.20;99.90
22145;DHT22;11238;48.730;11.566;2023-11-21T03:38:12;7.20;99.90
22145;DHT22;11238;48.730;11.566;2023-11-21T03:40:38;7.20;99.90
22145;DHT22;11238;48.730;11.566;2023-11-21T03:43:05;7.30;99.90
22145;DHT22;11238;48.730;11.566;2023-11-21T03:45:32;7.30;99.90
22145;DHT22;11238;48.730;11.566;2023-11-21T03:47:57;7.30;99.90
22145;DHT22;11238;48.730;11.566;2023-11-21T03:50:23;7.30;99.90
22145;DHT22;11238;48.730;11.566;2023-11-21T03:52:49;7.30;99.90
22145;DHT22;11238;48.730;11.566;2023-11-21T03:55:15;7.30;99.90
22145;DHT22;11238;48.730;11.566;2023-11-21T03:57:42;7.30;99.90
22145;DHT22;11238;48.730;11.566;2023-11-21T04:00:09;7.40;99.90
22145;DHT22;11238;48.730;11.566;2023-11-21T04:02:38;7.40;99.90
22145;DHT22;11238;48.730;11.566;2023-11-21T04:05:05;7.40;99.90
22145;DHT22;11238;48.730;11.566;2023-11-21T04:07:33;7.40;99.90
22145;DHT22;11238;48.730;11.566;2023-11-21T04:09:59;7.40;99.90
22145;DHT22;11238;48.730;11.566;2023-11-21T04:12:25;7.40;99.90
22145;DHT22;11238;48.730;11.566;2023-11-21T04:14:51;7.40;99.90
22145;DHT22;11238;48.730;11.566;2023-11-21T04:17:18;7.40;99.90
22145;DHT22;11238;48.730;11.566;2023-11-21T04:19:45;7.40;99.90
22145;DHT22;11238;48.730;11.566;2023-11-21T04:22:12;7.40;99.90
22145;DHT22;11238;48.730;11.566;2023-11-21T04:24:38;7.40;99.90
22145;DHT22;11238;48.730;11.566;2023-11-21T04:27:04;7.40;99.90
22145;DHT22;11238;48.730;11.566;2023-11-21T04:29:30;7.50;99.90
22145;DHT22;11238;48.730;11.566;2023-11-21T04:31:56;7.40;99.90
22145;DHT22;11238;48.730;11.566;2023-11-21T04:34:21;7.40;99.90
22145;DHT22;11238;48.730;11.566;2023-11-21T04:36:47;7.50;99.90
22145;DHT22;11238;48.730;11.566;2023-11-21T04:39:13;7.50;99.90
22145;DHT22;11238;48.730;11.566;2023-11-21T04:41:39;7.40;99.90
22145;DHT22;11238;48.730;11.566;2023-11-21T04:44:06;7.40;99.90
22145;DHT22;11238;48.730;11.566;2023-11-21T04:46:32;7.40;99.90
22145;DHT22;11238;48.730;11.566;2023-11-21T04:48:58;7.50;99.90
22145;DHT22;11238;48.730;11.566;2023-11-21T04:51:24;7.50;99.90
22145;DHT22;11238;48.730;11.566;2023-11-21T04:53:50;7.50;99.90
22145;DHT22;11238;48.730;11.566;2023-11-21T04:56:16;7.40;99.90
22145;DHT22;11238;48.730;11.566;2023-11-21T04:58:42;7.40;99.90
22145;DHT22;11238;48.730;11.566;2023-11-21T05:01:08;7.50;99.90
22145;DHT22;11238;48.730;11.566;2023-11-21T05:03:34;7.50;99.90
22145;DHT22;11238;48.730;11.566;2023-11-21T05:06:00;7.50;99.90
22145;DHT22;11238;48.730;11.566;2023-11-21T05:08:26;7.50;99.90
22145;DHT22;11238;48.730;11.566;2023-11-21T05:10:53;7.50;99.90
22145;DHT22;11238;48.730;11.566;2023-11-21T05:13:20;7.50;99.90
22145;DHT22;11238;48.730;11.566;2023-11-21T05:15:46;7.60;99.90
22145;DHT22;11238;48.730;11.566;2023-11-21T05:18:12;7.60;99.90
22145;DHT22;11238;48.730;11.566;2023-11-21T05:20:39;7.60;99.90
22145;DHT22;11238;48.730;11.566;2023-11-21T05:23:07;7.60;99.90
22145;DHT22;11238;48.730;11.566;2023-11-21T05:25:34;7.60;99.90
22145;DHT22;11238;48.730;11.566;2023-11-21T05:28:00;7.60;99.90
22145;DHT22;11238;48.730;11.566;2023-11-21T05:30:27;7.60;99.90
22145;DHT22;11238;48.730;11.566;2023-11-21T05:32:53;7.50;99.90
22145;DHT22;11238;48.730;11.566;2023-11-21T05:35:19;7.60;99.90
22145;DHT22;11238;48.730;11.566;2023-11-21T05:37:48;7.60;99.90
22145;DHT22;11238;48.730;11.566;2023-11-21T05:40:14;7.60;99.90
22145;DHT22;11238;48.730;11.566;2023-11-21T05:42:40;7.50;99.90
22145;DHT22;11238;48.730;11.566;2023-11-21T05:45:08;7.50;99.90
22145;DHT22;11238;48.730;11.566;2023-11-21T05:47:38;7.60;99.90
22145;DHT22;11238;48.730;11.566;2023-11-21T05:50:05;7.60;99.90
22145;DHT22;11238;48.730;11.566;2023-11-21T05:52:31;7.50;99.90
22145;DHT22;11238;48.730;11.566;2023-11-21T05:54:59;7.50;99.90
22145;DHT22;11238;48.730;11.566;2023-11-21T05:57:26;7.60;99.90
22145;DHT22;11238;48.730;11.566;2023-11-21T05:59:52;7.60;99.90
22145;DHT22;11238;48.730;11.566;2023-11-21T06:02:18;7.60;99.90
22145;DHT22;11238;48.730;11.566;2023-11-21T06:04:44;7.60;99.90
22145;DHT22;11238;48.730;11.566;2023-11-21T06:07:10;7.60;99.90
22145;DHT22;11238;48.730;11.566;2023-11-21T06:09:37;7.60;99.90
22145;DHT22;11238;48.730;11.566;2023-11-21T06:12:03;7.50;99.90
22145;DHT22;11238;48.730;11.566;2023-11-21T06:14:30;7.60;99.90
22145;DHT22;11238;48.730;11.566;2023-11-21T06:16:55;7.60;99.90
22145;DHT22;11238;48.730;11.566;2023-11-21T06:19:23;7.60;99.90
22145;DHT22;11238;48.730;11.566;2023-11-21T06:22:11;7.60;99.90
22145;DHT22;11238;48.730;11.566;2023-11-21T06:24:37;7.60;99.90
22145;DHT22;11238;48.730;11.566;2023-11-21T06:27:04;7.60;99.90
22145;DHT22;11238;48.730;11.566;2023-11-21T06:29:30;7.60;99.90
22145;DHT22;11238;48.730;11.566;2023-11-21T06:31:57;7.50;99.90
22145;DHT22;11238;48.730;11.566;2023-11-21T06:34:24;7.50;99.90
22145;DHT22;11238;48.730;11.566;2023-11-21T06:36:50;7.50;99.90
22145;DHT22;11238;48.730;11.566;2023-11-21T06:39:16;7.50;99.90
22145;DHT22;11238;48.730;11.566;2023-11-21T06:41:43;7.50;99.90
22145;DHT22;11238;48.730;11.566;2023-11-21T06:44:08;7.50;99.90
22145;DHT22;11238;48.730;11.566;2023-11-21T06:46:35;7.50;99.90
22145;DHT22;11238;48.730;11.566;2023-11-21T06:49:02;7.50;99.90
22145;DHT22;11238;48.730;11.566;2023-11-21T06:51:28;7.50;99.90
22145;DHT22;11238;48.730;11.566;2023-11-21T06:53:54;7.60;99.90
22145;DHT22;11238;48.730;11.566;2023-11-21T06:56:20;7.60;99.90
22145;DHT22;11238;48.730;11.566;2023-11-21T06:58:46;7.60;99.90
22145;DHT22;11238;48.730;11.566;2023-11-21T07:01:13;7.60;99.90
22145;DHT22;11238;48.730;11.566;2023-11-21T07:03:39;7.60;99.90
22145;DHT22;11238;48.730;11.566;2023-11-21T07:06:08;7.60;99.90
22145;DHT22;11238;48.730;11.566;2023-11-21T07:08:34;7.60;99.90
22145;DHT22;11238;48.730;11.566;2023-11-21T07:11:01;7.60;99.90
22145;DHT22;11238;48.730;11.566;2023-11-21T07:13:29;7.50;99.90
22145;DHT22;11238;48.730;11.566;2023-11-21T07:15:55;7.40;99.90
22145;DHT22;11238;48.730;11.566;2023-11-21T07:18:21;7.40;99.90
22145;DHT22;11238;48.730;11.566;2023-11-21T07:20:49;7.30;99.90
22145;DHT22;11238;48.730;11.566;2023-11-21T07:23:15;7.30;99.90
22145;DHT22;11238;48.730;11.566;2023-11-21T07:25:41;7.30;99.90
22145;DHT22;11238;48.730;11.566;2023-11-21T07:28:09;7.30;99.90
22145;DHT22;11238;48.730;11.566;2023-11-21T07:30:35;7.30;99.90
22145;DHT22;11238;48.730;11.566;2023-11-21T07:33:01;7.30;99.90
22145;DHT22;11238;48.730;11.566;2023-11-21T07:35:26;7.30;99.90
22145;DHT22;11238;48.730;11.566;2023-11-21T07:37:53;7.40;99.90
22145;DHT22;11238;48.730;11.566;2023-11-21T07:40:19;7.30;99.90
22145;DHT22;11238;48.730;11.566;2023-11-21T07:42:45;7.30;99.90
22145;DHT22;11238;48.730;11.566;2023-11-21T07:45:14;7.40;99.90
22145;DHT22;11238;48.730;11.566;2023-11-21T07:47:40;7.40;99.90
22145;DHT22;11238;48.730;11.566;2023-11-21T07:50:07;7.30;99.90
22145;DHT22;11238;48.730;11.566;2023-11-21T07:52:33;7.40;99.90
22145;DHT22;11238;48.730;11.566;2023-11-21T07:54:59;7.40;99.90
22145;DHT22;11238;48.730;11.566;2023-11-21T07:57:28;7.40;99.90
22145;DHT22;11238;48.730;11.566;2023-11-21T07:59:54;7.40;99.90
22145;DHT22;11238;48.730;11.566;2023-11-21T08:02:20;7.40;99.90
22145;DHT22;11238;48.730;11.566;2023-11-21T08:04:46;7.40;99.90
22145;DHT22;11238;48.730;11.566;2023-11-21T08:07:17;7.50;99.90
22145;DHT22;11238;48.730;11.566;2023-11-21T08:09:45;7.50;99.90
22145;DHT22;11238;48.730;11.566;2023-11-21T08:12:13;7.50;99.90
22145;DHT22;11238;48.730;11.566;2023-11-21T08:14:39;7.50;99.90
22145;DHT22;11238;48.730;11.566;2023-11-21T08:17:06;7.60;99.90
22145;DHT22;11238;48.730;11.566;2023-11-21T08:19:32;7.70;99.90
22145;DHT22;11238;48.730;11.566;2023-11-21T08:21:59;7.70;99.90
22145;DHT22;11238;48.730;11.566;2023-11-21T08:24:26;7.60;99.90
22145;DHT22;11238;48.730;11.566;2023-11-21T08:26:53;7.60;99.90
22145;DHT22;11238;48.730;11.566;2023-11-21T08:29:23;7.60;99.90
22145;DHT22;11238;48.730;11.566;2023-11-21T08:31:49;7.70;99.90
22145;DHT22;11238;48.730;11.566;2023-11-21T08:34:14;7.70;99.90
22145;DHT22;11238;48.730;11.566;2023-11-21T08:37:02;7.70;99.90
22145;DHT22;11238;48.730;11.566;2023-11-21T08:39:28;7.80;99.90
22145;DHT22;11238;48.730;11.566;2023-11-21T08:41:56;7.80;99.90
22145;DHT22;11238;48.730;11.566;2023-11-21T08:44:44;7.80;99.90
22145;DHT22;11238;48.730;11.566;2023-11-21T08:47:10;7.90;99.90
22145;DHT22;11238;48.730;11.566;2023-11-21T08:49:37;7.90;99.90
22145;DHT22;11238;48.730;11.566;2023-11-21T08:52:03;7.90;99.90
22145;DHT22;11238;48.730;11.566;2023-11-21T08:54:31;7.90;99.90
22145;DHT22;11238;48.730;11.566;2023-11-21T08:56:58;8.00;99.90
22145;DHT22;11238;48.730;11.566;2023-11-21T08:59:25;8.00;99.90
22145;DHT22;11238;48.730;11.566;2023-11-21T09:01:52;8.00;99.90
22145;DHT22;11238;48.730;11.566;2023-11-21T09:04:19;8.00;99.90
22145;DHT22;11238;48.730;11.566;2023-11-21T09:07:06;8.00;99.90
22145;DHT22;11238;48.730;11.566;2023-11-21T09:09:34;8.10;99.90
22145;DHT22;11238;48.730;11.566;2023-11-21T09:11:59;8.10;99.90
22145;DHT22;11238;48.730;11.566;2023-11-21T09:14:28;8.10;99.90
22145;DHT22;11238;48.730;11.566;2023-11-21T09:16:55;8.10;99.90
22145;DHT22;11238;48.730;11.566;2023-11-21T09:19:22;8.10;99.90
22145;DHT22;11238;48.730;11.566;2023-11-21T09:21:48;8.10;99.90
22145;DHT22;11238;48.730;11.566;2023-11-21T09:24:15;8.00;99.90
22145;DHT22;11238;48.730;11.566;2023-11-21T09:26:40;8.00;99.90
22145;DHT22;11238;48.730;11.566;2023-11-21T09:29:07;7.90;99.90
22145;DHT22;11238;48.730;11.566;2023-11-21T09:31:33;7.80;99.90
22145;DHT22;11238;48.730;11.566;2023-11-21T09:34:00;7.70;99.90
22145;DHT22;11238;48.730;11.566;2023-11-21T09:36:27;7.80;99.90
22145;DHT22;11238;48.730;11.566;2023-11-21T09:38:56;7.80;99.90
22145;DHT22;11238;48.730;11.566;2023-11-21T09:41:29;7.70;99.90
22145;DHT22;11238;48.730;11.566;2023-11-21T09:43:57;7.70;99.90
22145;DHT22;11238;48.730;11.566;2023-11-21T09:46:48;7.70;99.90
22145;DHT22;11238;48.730;11.566;2023-11-21T09:49:47;7.70;99.90
22145;DHT22;11238;48.730;11.566;2023-11-21T09:52:22;7.70;99.90
22145;DHT22;11238;48.730;11.566;2023-11-21T09:54:52;7.70;99.90
22145;DHT22;11238;48.730;11.566;2023-11-21T09:57:24;7.70;99.90
22145;DHT22;11238;48.730;11.566;2023-11-21T09:59:53;7.70;99.90
22145;DHT22;11238;48.730;11.566;2023-11-21T10:02:28;7.70;99.90
22145;DHT22;11238;48.730;11.566;2023-11-21T10:05:17;7.70;99.90
22145;DHT22;11238;48.730;11.566;2023-11-21T10:07:43;7.70;99.90
22145;DHT22;11238;48.730;11.566;2023-11-21T10:10:11;7.70;99.90
22145;DHT22;11238;48.730;11.566;2023-11-21T10:12:38;7.70;99.90
22145;DHT22;11238;48.730;11.566;2023-11-21T10:15:07;7.80;99.90
22145;DHT22;11238;48.730;11.566;2023-11-21T10:17:38;7.80;99.90
22145;DHT22;11238;48.730;11.566;2023-11-21T10:20:09;7.80;99.90
22145;DHT22;11238;48.730;11.566;2023-11-21T10:22:42;7.80;99.90
22145;DHT22;11238;48.730;11.566;2023-11-21T10:25:10;7.80;99.90
22145;DHT22;11238;48.730;11.566;2023-11-21T10:27:36;7.80;99.90
22145;DHT22;11238;48.730;11.566;2023-11-21T10:30:05;7.80;99.90
22145;DHT22;11238;48.730;11.566;2023-11-21T10:32:31;7.80;99.90
22145;DHT22;11238;48.730;11.566;2023-11-21T10:34:59;7.80;99.90
22145;DHT22;11238;48.730;11.566;2023-11-21T10:37:35;7.80;99.90
22145;DHT22;11238;48.730;11.566;2023-11-21T10:40:01;7.80;99.90
22145;DHT22;11238;48.730;11.566;2023-11-21T10:42:27;7.90;99.90
22145;DHT22;11238;48.730;11.566;2023-11-21T10:44:55;7.90;99.90
22145;DHT22;11238;48.730;11.566;2023-11-21T10:47:20;7.90;99.90
22145;DHT22;11238;48.730;11.566;2023-11-21T10:49:51;7.90;99.90
22145;DHT22;11238;48.730;11.566;2023-11-21T10:52:21;7.90;99.90
22145;DHT22;11238;48.730;11.566;2023-11-21T10:54:48;7.90;99.90
22145;DHT22;11238;48.730;11.566;2023-11-21T10:57:18;7.80;99.90
22145;DHT22;11238;48.730;11.566;2023-11-21T10:59:47;7.70;99.90
22145;DHT22;11238;48.730;11.566;2023-11-21T11:02:23;7.70;99.90
22145;DHT22;11238;48.730;11.566;2023-11-21T11:04:54;7.80;99.90
22145;DHT22;11238;48.730;11.566;2023-11-21T11:07:26;7.70;99.90
22145;DHT22;11238;48.730;11.566;2023-11-21T11:09:56;7.70;99.90
22145;DHT22;11238;48.730;11.566;2023-11-21T11:12:24;7.80;99.90
22145;DHT22;11238;48.730;11.566;2023-11-21T11:14:50;7.80;99.90
22145;DHT22;11238;48.730;11.566;2023-11-21T11:17:17;7.80;99.90
22145;DHT22;11238;48.730;11.566;2023-11-21T11:19:46;7.80;99.90
22145;DHT22;11238;48.730;11.566;2023-11-21T11:23:17;7.90;99.90
22145;DHT22;11238;48.730;11.566;2023-11-21T11:25:44;8.00;99.90
22145;DHT22;11238;48.730;11.566;2023-11-21T11:28:31;8.00;99.90
22145;DHT22;11238;48.730;11.566;2023-11-21T11:34:26;8.00;99.90
22145;DHT22;11238;48.730;11.566;2023-11-21T11:37:03;7.90;99.90
22145;DHT22;11238;48.730;11.566;2023-11-21T11:39:31;8.00;99.90
22145;DHT22;11238;48.730;11.566;2023-11-21T11:42:02;7.90;99.90
22145;DHT22;11238;48.730;11.566;2023-11-21T11:47:36;8.00;99.90
22145;DHT22;11238;48.730;11.566;2023-11-21T11:50:07;8.10;99.90
22145;DHT22;11238;48.730;11.566;2023-11-21T11:52:41;8.20;99.90
22145;DHT22;11238;48.730;11.566;2023-11-21T11:55:15;8.20;99.90
22145;DHT22;11238;48.730;11.566;2023-11-21T11:57:51;8.20;99.90
22145;DHT22;11238;48.730;11.566;2023-11-21T12:02:57;8.30;99.90
22145;DHT22;11238;48.730;11.566;2023-11-21T12:05:26;8.60;99.90
22145;DHT22;11238;48.730;11.566;2023-11-21T12:07:55;8.60;99.90
22145;DHT22;11238;48.730;11.566;2023-11-21T12:10:30;8.60;99.90
22145;DHT22;11238;48.730;11.566;2023-11-21T12:13:01;8.60;99.90
22145;DHT22;11238;48.730;11.566;2023-11-21T12:15:27;8.70;99.90
22145;DHT22;11238;48.730;11.566;2023-11-21T12:17:57;8.70;99.90
22145;DHT22;11238;48.730;11.566;2023-11-21T12:20:25;8.80;99.90
22145;DHT22;11238;48.730;11.566;2023-11-21T12:22:53;8.80;99.90
22145;DHT22;11238;48.730;11.566;2023-11-21T12:25:24;8.80;99.90
22145;DHT22;11238;48.730;11.566;2023-11-21T12:27:54;8.90;99.90
22145;DHT22;11238;48.730;11.566;2023-11-21T12:30:28;9.00;99.90
22145;DHT22;11238;48.730;11.566;2023-11-21T12:32:56;9.00;99.90
22145;DHT22;11238;48.730;11.566;2023-11-21T12:35:25;9.10;99.90
22145;DHT22;11238;48.730;11.566;2023-11-21T12:37:52;9.20;99.90
22145;DHT22;11238;48.730;11.566;2023-11-21T12:40:19;9.10;99.90
22145;DHT22;11238;48.730;11.566;2023-11-21T12:42:50;9.30;99.90
22145;DHT22;11238;48.730;11.566;2023-11-21T12:47:48;9.30;99.90
22145;DHT22;11238;48.730;11.566;2023-11-21T12:50:21;9.30;99.90
22145;DHT22;11238;48.730;11.566;2023-11-21T12:52:52;9.30;99.90
22145;DHT22;11238;48.730;11.566;2023-11-21T12:55:22;9.20;99.90
22145;DHT22;11238;48.730;11.566;2023-11-21T12:57:55;9.20;99.90
22145;DHT22;11238;48.730;11.566;2023-11-21T13:00:36;9.30;99.90
22145;DHT22;11238;48.730;11.566;2023-11-21T13:03:07;9.30;99.90
22145;DHT22;11238;48.730;11.566;2023-11-21T13:05:35;9.30;99.90
22145;DHT22;11238;48.730;11.566;2023-11-21T13:08:05;9.30;99.90
22145;DHT22;11238;48.730;11.566;2023-11-21T13:10:34;9.30;99.90
22145;DHT22;11238;48.730;11.566;2023-11-21T13:13:02;9.30;99.90
22145;DHT22;11238;48.730;11.566;2023-11-21T13:15:31;9.40;99.90
22145;DHT22;11238;48.730;11.566;2023-11-21T13:17:58;9.30;99.90
22145;DHT22;11238;48.730;11.566;2023-11-21T13:20:27;9.40;99.90
22145;DHT22;11238;48.730;11.566;2023-11-21T13:22:55;9.40;99.90
22145;DHT22;11238;48.730;11.566;2023-11-21T13:25:30;9.50;99.90
22145;DHT22;11238;48.730;11.566;2023-11-21T13:27:57;9.40;99.90
22145;DHT22;11238;48.730;11.566;2023-11-21T13:30:24;9.40;99.90
22145;DHT22;11238;48.730;11.566;2023-11-21T13:33:05;9.40;99.90
22145;DHT22;11238;48.730;11.566;2023-11-21T13:35:37;9.40;99.90
22145;DHT22;11238;48.730;11.566;2023-11-21T13:38:08;9.40;99.90
22145;DHT22;11238;48.730;11.566;2023-11-21T13:40:37;9.40;99.90
22145;DHT22;11238;48.730;11.566;2023-11-21T13:43:10;9.40;99.90
22145;DHT22;11238;48.730;11.566;2023-11-21T13:45:37;9.50;99.90
22145;DHT22;11238;48.730;11.566;2023-11-21T13:48:05;9.50;99.90
22145;DHT22;11238;48.730;11.566;2023-11-21T13:50:36;9.50;99.90
22145;DHT22;11238;48.730;11.566;2023-11-21T13:53:03;9.50;99.90
22145;DHT22;11238;48.730;11.566;2023-11-21T13:55:34;9.50;99.90
22145;DHT22;11238;48.730;11.566;2023-11-21T13:58:02;9.50;99.90
22145;DHT22;11238;48.730;11.566;2023-11-21T14:00:35;9.50;99.90
22145;DHT22;11238;48.730;11.566;2023-11-21T14:03:18;9.50;99.90
22145;DHT22;11238;48.730;11.566;2023-11-21T14:05:50;9.60;99.90
22145;DHT22;11238;48.730;11.566;2023-11-21T14:08:24;9.60;99.90
22145;DHT22;11238;48.730;11.566;2023-11-21T14:10:55;9.60;99.90
22145;DHT22;11238;48.730;11.566;2023-11-21T14:13:24;9.50;99.90
22145;DHT22;11238;48.730;11.566;2023-11-21T14:15:51;9.50;99.90
22145;DHT22;11238;48.730;11.566;2023-11-21T14:18:24;9.50;99.90
22145;DHT22;11238;48.730;11.566;2023-11-21T14:21:01;9.40;99.90
22145;DHT22;11238;48.730;11.566;2023-11-21T14:23:27;9.40;99.90
22145;DHT22;11238;48.730;11.566;2023-11-21T14:25:55;9.40;99.90
22145;DHT22;11238;48.730;11.566;2023-11-21T14:28:22;9.50;99.90
22145;DHT22;11238;48.730;11.566;2023-11-21T14:30:49;9.50;99.90
22145;DHT22;11238;48.730;11.566;2023-11-21T14:33:16;9.40;99.90
22145;DHT22;11238;48.730;11.566;2023-11-21T14:35:43;9.50;99.90
22145;DHT22;11238;48.730;11.566;2023-11-21T14:38:09;9.50;99.90
22145;DHT22;11238;48.730;11.566;2023-11-21T14:40:36;9.50;99.90
22145;DHT22;11238;48.730;11.566;2023-11-21T14:43:03;9.50;99.90
22145;DHT22;11238;48.730;11.566;2023-11-21T14:45:32;9.50;99.90
22145;DHT22;11238;48.730;11.566;2023-11-21T14:47:58;9.50;99.90
22145;DHT22;11238;48.730;11.566;2023-11-21T14:50:30;9.40;99.90
22145;DHT22;11238;48.730;11.566;2023-11-21T14:53:15;9.50;99.90
22145;DHT22;11238;48.730;11.566;2023-11-21T14:55:41;9.40;99.90
22145;DHT22;11238;48.730;11.566;2023-11-21T14:58:07;9.40;99.90
22145;DHT22;11238;48.730;11.566;2023-11-21T15:00:39;9.40;99.90
22145;DHT22;11238;48.730;11.566;2023-11-21T15:03:12;9.40;99.90
22145;DHT22;11238;48.730;11.566;2023-11-21T15:05:57;9.40;99.90
22145;DHT22;11238;48.730;11.566;2023-11-21T15:08:24;9.40;99.90
22145;DHT22;11238;48.730;11.566;2023-11-21T15:10:58;9.40;99.90
22145;DHT22;11238;48.730;11.566;2023-11-21T15:13:24;9.40;99.90
22145;DHT22;11238;48.730;11.566;2023-11-21T15:15:52;9.40;99.90
22145;DHT22;11238;48.730;11.566;2023-11-21T15:18:20;9.40;99.90
22145;DHT22;11238;48.730;11.566;2023-11-21T15:20:46;9.40;99.90
22145;DHT22;11238;48.730;11.566;2023-11-21T15:23:12;9.40;99.90
22145;DHT22;11238;48.730;11.566;2023-11-21T15:25:38;9.30;99.90
22145;DHT22;11238;48.730;11.566;2023-11-21T15:28:04;9.30;99.90
22145;DHT22;11238;48.730;11.566;2023-11-21T15:30:34;9.30;99.90
22145;DHT22;11238;48.730;11.566;2023-11-21T15:33:01;9.30;99.90
22145;DHT22;11238;48.730;11.566;2023-11-21T15:35:29;9.20;99.90
22145;DHT22;11238;48.730;11.566;2023-11-21T15:37:55;9.10;99.90
22145;DHT22;11238;48.730;11.566;2023-11-21T15:40:24;9.10;99.90
22145;DHT22;11238;48.730;11.566;2023-11-21T15:42:51;9.10;99.90
22145;DHT22;11238;48.730;11.566;2023-11-21T15:45:17;9.10;99.90
22145;DHT22;11238;48.730;11.566;2023-11-21T15:47:46;9.10;99.90
22145;DHT22;11238;48.730;11.566;2023-11-21T15:50:12;9.10;99.90